sensor_id;sensor_type;location;lat;lon;timestamp;P1;durP1;ratioP1;P2;durP2;ratioP2
11453;SDS011;5783;55.174;61.310;2023-02-15T00:02:08;7.10;;;5.00;;
11453;SDS011;5783;55.174;61.310;2023-02-15T00:04:37;7.00;;;5.37;;
11453;SDS011;5783;55.174;61.310;2023-02-15T00:07:26;6.70;;;4.87;;
11453;SDS011;5783;55.174;61.310;2023-02-15T00:09:55;5.67;;;4.57;;
11453;SDS011;5783;55.174;61.310;2023-02-15T00:12:24;6.50;;;4.90;;
11453;SDS011;5783;55.174;61.310;2023-02-15T00:14:53;8.40;;;5.70;;
11453;SDS011;5783;55.174;61.310;2023-02-15T00:17:23;7.20;;;5.77;;
11453;SDS011;5783;55.174;61.310;2023-02-15T00:19:52;7.67;;;5.30;;
11453;SDS011;5783;55.174;61.310;2023-02-15T00:22:21;6.93;;;5.50;;
11453;SDS011;5783;55.174;61.310;2023-02-15T00:24:50;8.90;;;5.37;;
11453;SDS011;5783;55.174;61.310;2023-02-15T00:27:19;8.47;;;5.57;;
11453;SDS011;5783;55.174;61.310;2023-02-15T00:29:48;7.93;;;5.53;;
11453;SDS011;5783;55.174;61.310;2023-02-15T00:32:17;7.87;;;5.73;;
11453;SDS011;5783;55.174;61.310;2023-02-15T00:34:46;7.07;;;5.30;;
11453;SDS011;5783;55.174;61.310;2023-02-15T00:37:16;8.13;;;5.53;;
11453;SDS011;5783;55.174;61.310;2023-02-15T00:39:45;8.57;;;6.03;;
11453;SDS011;5783;55.174;61.310;2023-02-15T00:42:14;7.87;;;5.70;;
11453;SDS011;5783;55.174;61.310;2023-02-15T00:44:43;8.63;;;5.93;;
11453;SDS011;5783;55.174;61.310;2023-02-15T00:47:12;8.30;;;6.13;;
11453;SDS011;5783;55.174;61.310;2023-02-15T00:49:41;9.20;;;6.13;;
11453;SDS011;5783;55.174;61.310;2023-02-15T00:52:10;9.80;;;6.33;;
11453;SDS011;5783;55.174;61.310;2023-02-15T00:54:40;9.27;;;6.17;;
11453;SDS011;5783;55.174;61.310;2023-02-15T00:57:09;9.53;;;6.60;;
11453;SDS011;5783;55.174;61.310;2023-02-15T00:59:38;8.30;;;6.53;;
11453;SDS011;5783;55.174;61.310;2023-02-15T01:02:09;8.93;;;6.17;;
11453;SDS011;5783;55.174;61.310;2023-02-15T01:04:38;9.50;;;6.50;;
11453;SDS011;5783;55.174;61.310;2023-02-15T01:07:07;8.47;;;5.97;;
11453;SDS011;5783;55.174;61.310;2023-02-15T01:09:36;8.07;;;6.00;;
11453;SDS011;5783;55.174;61.310;2023-02-15T01:12:05;7.87;;;6.00;;
11453;SDS011;5783;55.174;61.310;2023-02-15T01:14:34;7.13;;;5.40;;
11453;SDS011;5783;55.174;61.310;2023-02-15T01:17:03;7.10;;;5.77;;
11453;SDS011;5783;55.174;61.310;2023-02-15T01:19:33;9.30;;;5.90;;
11453;SDS011;5783;55.174;61.310;2023-02-15T01:22:02;8.23;;;6.30;;
11453;SDS011;5783;55.174;61.310;2023-02-15T01:24:31;7.70;;;5.50;;
11453;SDS011;5783;55.174;61.310;2023-02-15T01:27:00;7.63;;;5.50;;
11453;SDS011;5783;55.174;61.310;2023-02-15T01:29:29;7.97;;;6.10;;
11453;SDS011;5783;55.174;61.310;2023-02-15T01:31:58;8.30;;;5.93;;
11453;SDS011;5783;55.174;61.310;2023-02-15T01:34:28;7.33;;;5.90;;
11453;SDS011;5783;55.174;61.310;2023-02-15T01:36:58;6.57;;;5.47;;
11453;SDS011;5783;55.174;61.310;2023-02-15T01:39:27;7.37;;;5.70;;
11453;SDS011;5783;55.174;61.310;2023-02-15T01:41:58;8.27;;;5.60;;
11453;SDS011;5783;55.174;61.310;2023-02-15T01:47:21;7.03;;;5.80;;
11453;SDS011;5783;55.174;61.310;2023-02-15T01:49:51;6.53;;;5.53;;
11453;SDS011;5783;55.174;61.310;2023-02-15T01:52:22;7.00;;;5.47;;
11453;SDS011;5783;55.174;61.310;2023-02-15T01:54:51;7.03;;;5.20;;
11453;SDS011;5783;55.174;61.310;2023-02-15T01:57:22;5.83;;;4.97;;
11453;SDS011;5783;55.174;61.310;2023-02-15T01:59:53;6.80;;;5.40;;
11453;SDS011;5783;55.174;61.310;2023-02-15T02:02:25;6.13;;;5.00;;
11453;SDS011;5783;55.174;61.310;2023-02-15T02:05:25;6.50;;;5.10;;
11453;SDS011;5783;55.174;61.310;2023-02-15T02:07:45;6.93;;;5.27;;
11453;SDS011;5783;55.174;61.310;2023-02-15T02:10:18;6.77;;;5.70;;
11453;SDS011;5783;55.174;61.310;2023-02-15T02:12:50;7.20;;;5.20;;
11453;SDS011;5783;55.174;61.310;2023-02-15T02:15:23;6.47;;;4.83;;
11453;SDS011;5783;55.174;61.310;2023-02-15T02:21:07;5.97;;;4.90;;
11453;SDS011;5783;55.174;61.310;2023-02-15T02:50:39;5.50;;;4.63;;
11453;SDS011;5783;55.174;61.310;2023-02-15T02:53:09;5.93;;;5.00;;
11453;SDS011;5783;55.174;61.310;2023-02-15T02:58:13;6.10;;;5.13;;
11453;SDS011;5783;55.174;61.310;2023-02-15T03:03:52;6.47;;;5.10;;
11453;SDS011;5783;55.174;61.310;2023-02-15T03:06:43;6.37;;;4.93;;
11453;SDS011;5783;55.174;61.310;2023-02-15T03:10:04;6.60;;;5.60;;
11453;SDS011;5783;55.174;61.310;2023-02-15T03:15:00;6.93;;;5.30;;
11453;SDS011;5783;55.174;61.310;2023-02-15T03:17:48;6.33;;;5.03;;
11453;SDS011;5783;55.174;61.310;2023-02-15T03:25:44;6.27;;;5.13;;
11453;SDS011;5783;55.174;61.310;2023-02-15T03:28:17;8.03;;;5.83;;
11453;SDS011;5783;55.174;61.310;2023-02-15T03:30:48;6.97;;;5.33;;
11453;SDS011;5783;55.174;61.310;2023-02-15T03:33:20;6.87;;;5.63;;
11453;SDS011;5783;55.174;61.310;2023-02-15T03:45:00;6.77;;;5.20;;
11453;SDS011;5783;55.174;61.310;2023-02-15T03:50:24;6.30;;;5.23;;
11453;SDS011;5783;55.174;61.310;2023-02-15T03:53:14;6.77;;;5.37;;
11453;SDS011;5783;55.174;61.310;2023-02-15T03:55:46;7.23;;;5.33;;
11453;SDS011;5783;55.174;61.310;2023-02-15T03:58:17;7.50;;;5.70;;
11453;SDS011;5783;55.174;61.310;2023-02-15T04:04:18;8.00;;;5.37;;
11453;SDS011;5783;55.174;61.310;2023-02-15T04:06:48;6.97;;;5.37;;
11453;SDS011;5783;55.174;61.310;2023-02-15T04:09:17;7.80;;;6.10;;
11453;SDS011;5783;55.174;61.310;2023-02-15T04:12:05;8.53;;;5.90;;
11453;SDS011;5783;55.174;61.310;2023-02-15T04:14:35;7.57;;;5.27;;
11453;SDS011;5783;55.174;61.310;2023-02-15T04:17:23;8.17;;;5.80;;
11453;SDS011;5783;55.174;61.310;2023-02-15T04:19:52;7.00;;;5.73;;
11453;SDS011;5783;55.174;61.310;2023-02-15T04:22:41;8.63;;;5.50;;
11453;SDS011;5783;55.174;61.310;2023-02-15T04:25:30;7.23;;;5.30;;
11453;SDS011;5783;55.174;61.310;2023-02-15T04:27:59;7.70;;;5.30;;
11453;SDS011;5783;55.174;61.310;2023-02-15T04:30:28;7.10;;;5.80;;
11453;SDS011;5783;55.174;61.310;2023-02-15T04:32:57;9.03;;;5.60;;
11453;SDS011;5783;55.174;61.310;2023-02-15T04:35:26;9.10;;;6.27;;
11453;SDS011;5783;55.174;61.310;2023-02-15T04:37:57;7.77;;;6.07;;
11453;SDS011;5783;55.174;61.310;2023-02-15T04:40:26;9.47;;;6.33;;
11453;SDS011;5783;55.174;61.310;2023-02-15T04:42:56;12.07;;;6.27;;
11453;SDS011;5783;55.174;61.310;2023-02-15T04:45:25;8.27;;;6.17;;
11453;SDS011;5783;55.174;61.310;2023-02-15T04:47:54;8.23;;;5.93;;
11453;SDS011;5783;55.174;61.310;2023-02-15T04:50:23;7.93;;;5.83;;
11453;SDS011;5783;55.174;61.310;2023-02-15T04:52:52;7.53;;;6.20;;
11453;SDS011;5783;55.174;61.310;2023-02-15T04:55:22;9.50;;;6.20;;
11453;SDS011;5783;55.174;61.310;2023-02-15T04:57:52;9.20;;;6.60;;
11453;SDS011;5783;55.174;61.310;2023-02-15T05:00:21;7.77;;;6.20;;
11453;SDS011;5783;55.174;61.310;2023-02-15T05:02:51;7.90;;;6.47;;
11453;SDS011;5783;55.174;61.310;2023-02-15T05:05:20;11.47;;;7.23;;
11453;SDS011;5783;55.174;61.310;2023-02-15T05:07:49;9.70;;;7.00;;
11453;SDS011;5783;55.174;61.310;2023-02-15T05:10:18;9.70;;;7.00;;
11453;SDS011;5783;55.174;61.310;2023-02-15T05:12:48;12.00;;;7.30;;
11453;SDS011;5783;55.174;61.310;2023-02-15T05:15:17;10.33;;;6.63;;
11453;SDS011;5783;55.174;61.310;2023-02-15T05:17:46;9.93;;;7.20;;
11453;SDS011;5783;55.174;61.310;2023-02-15T05:20:15;9.87;;;6.83;;
11453;SDS011;5783;55.174;61.310;2023-02-15T05:22:44;10.33;;;6.70;;
11453;SDS011;5783;55.174;61.310;2023-02-15T05:25:14;9.87;;;6.87;;
11453;SDS011;5783;55.174;61.310;2023-02-15T05:28:02;8.47;;;6.77;;
11453;SDS011;5783;55.174;61.310;2023-02-15T05:31:25;10.40;;;6.43;;
11453;SDS011;5783;55.174;61.310;2023-02-15T05:33:42;8.90;;;6.67;;
11453;SDS011;5783;55.174;61.310;2023-02-15T05:36:12;9.93;;;6.93;;
11453;SDS011;5783;55.174;61.310;2023-02-15T05:38:41;8.53;;;6.50;;
11453;SDS011;5783;55.174;61.310;2023-02-15T05:41:10;8.93;;;6.90;;
11453;SDS011;5783;55.174;61.310;2023-02-15T05:43:39;9.63;;;7.03;;
11453;SDS011;5783;55.174;61.310;2023-02-15T05:46:08;10.67;;;7.10;;
11453;SDS011;5783;55.174;61.310;2023-02-15T05:48:38;11.00;;;7.10;;
11453;SDS011;5783;55.174;61.310;2023-02-15T05:51:08;10.10;;;6.73;;
11453;SDS011;5783;55.174;61.310;2023-02-15T05:53:58;9.03;;;6.73;;
11453;SDS011;5783;55.174;61.310;2023-02-15T05:56:27;9.10;;;6.90;;
11453;SDS011;5783;55.174;61.310;2023-02-15T05:58:56;9.40;;;6.77;;
11453;SDS011;5783;55.174;61.310;2023-02-15T06:01:25;8.67;;;6.73;;
11453;SDS011;5783;55.174;61.310;2023-02-15T06:03:55;8.77;;;6.90;;
11453;SDS011;5783;55.174;61.310;2023-02-15T06:06:24;8.70;;;6.80;;
11453;SDS011;5783;55.174;61.310;2023-02-15T06:08:53;11.03;;;6.90;;
11453;SDS011;5783;55.174;61.310;2023-02-15T06:11:22;9.80;;;6.73;;
11453;SDS011;5783;55.174;61.310;2023-02-15T06:13:51;8.17;;;6.33;;
11453;SDS011;5783;55.174;61.310;2023-02-15T06:16:20;8.13;;;6.90;;
11453;SDS011;5783;55.174;61.310;2023-02-15T06:18:50;9.17;;;6.90;;
11453;SDS011;5783;55.174;61.310;2023-02-15T06:21:19;12.20;;;6.97;;
11453;SDS011;5783;55.174;61.310;2023-02-15T06:23:48;10.33;;;6.83;;
11453;SDS011;5783;55.174;61.310;2023-02-15T06:26:17;10.70;;;6.90;;
11453;SDS011;5783;55.174;61.310;2023-02-15T06:28:46;9.40;;;7.13;;
11453;SDS011;5783;55.174;61.310;2023-02-15T06:31:15;9.53;;;7.20;;
11453;SDS011;5783;55.174;61.310;2023-02-15T06:33:44;8.80;;;7.03;;
11453;SDS011;5783;55.174;61.310;2023-02-15T06:36:14;10.70;;;6.60;;
11453;SDS011;5783;55.174;61.310;2023-02-15T06:38:43;9.73;;;6.97;;
11453;SDS011;5783;55.174;61.310;2023-02-15T06:41:12;9.47;;;7.20;;
11453;SDS011;5783;55.174;61.310;2023-02-15T06:43:41;9.40;;;7.03;;
11453;SDS011;5783;55.174;61.310;2023-02-15T06:46:10;9.43;;;7.20;;
11453;SDS011;5783;55.174;61.310;2023-02-15T06:48:39;9.90;;;6.63;;
11453;SDS011;5783;55.174;61.310;2023-02-15T06:51:09;10.73;;;6.90;;
11453;SDS011;5783;55.174;61.310;2023-02-15T06:53:38;10.13;;;7.47;;
11453;SDS011;5783;55.174;61.310;2023-02-15T06:56:09;10.87;;;6.83;;
11453;SDS011;5783;55.174;61.310;2023-02-15T06:58:39;9.00;;;6.93;;
11453;SDS011;5783;55.174;61.310;2023-02-15T07:01:11;9.90;;;7.13;;
11453;SDS011;5783;55.174;61.310;2023-02-15T07:03:40;8.33;;;6.80;;
11453;SDS011;5783;55.174;61.310;2023-02-15T07:06:09;9.00;;;6.80;;
11453;SDS011;5783;55.174;61.310;2023-02-15T07:08:38;8.10;;;6.70;;
11453;SDS011;5783;55.174;61.310;2023-02-15T07:11:08;9.77;;;7.10;;
11453;SDS011;5783;55.174;61.310;2023-02-15T07:13:56;8.73;;;6.40;;
11453;SDS011;5783;55.174;61.310;2023-02-15T07:16:26;8.77;;;6.40;;
11453;SDS011;5783;55.174;61.310;2023-02-15T07:18:57;9.47;;;6.33;;
11453;SDS011;5783;55.174;61.310;2023-02-15T07:21:26;9.53;;;6.63;;
11453;SDS011;5783;55.174;61.310;2023-02-15T07:23:56;8.50;;;6.67;;
11453;SDS011;5783;55.174;61.310;2023-02-15T07:26:26;8.60;;;5.70;;
11453;SDS011;5783;55.174;61.310;2023-02-15T07:28:55;8.90;;;6.20;;
11453;SDS011;5783;55.174;61.310;2023-02-15T07:31:24;7.60;;;5.87;;
11453;SDS011;5783;55.174;61.310;2023-02-15T07:33:53;6.97;;;5.40;;
11453;SDS011;5783;55.174;61.310;2023-02-15T07:36:22;7.83;;;5.83;;
11453;SDS011;5783;55.174;61.310;2023-02-15T07:38:51;7.80;;;5.63;;
11453;SDS011;5783;55.174;61.310;2023-02-15T07:41:20;8.33;;;6.00;;
11453;SDS011;5783;55.174;61.310;2023-02-15T07:43:50;12.27;;;6.00;;
11453;SDS011;5783;55.174;61.310;2023-02-15T07:46:19;7.67;;;5.60;;
11453;SDS011;5783;55.174;61.310;2023-02-15T07:48:48;8.13;;;6.13;;
11453;SDS011;5783;55.174;61.310;2023-02-15T07:51:17;7.37;;;5.93;;
11453;SDS011;5783;55.174;61.310;2023-02-15T07:53:46;8.50;;;5.83;;
11453;SDS011;5783;55.174;61.310;2023-02-15T07:56:17;7.80;;;5.63;;
11453;SDS011;5783;55.174;61.310;2023-02-15T07:58:46;9.50;;;5.83;;
11453;SDS011;5783;55.174;61.310;2023-02-15T08:01:36;11.83;;;6.00;;
11453;SDS011;5783;55.174;61.310;2023-02-15T08:04:06;8.57;;;5.60;;
11453;SDS011;5783;55.174;61.310;2023-02-15T08:06:37;12.97;;;6.50;;
11453;SDS011;5783;55.174;61.310;2023-02-15T08:09:07;7.47;;;6.17;;
11453;SDS011;5783;55.174;61.310;2023-02-15T08:11:37;12.57;;;5.90;;
11453;SDS011;5783;55.174;61.310;2023-02-15T08:16:59;12.03;;;6.40;;
11453;SDS011;5783;55.174;61.310;2023-02-15T08:19:31;9.10;;;5.80;;
11453;SDS011;5783;55.174;61.310;2023-02-15T08:22:31;10.07;;;6.17;;
11453;SDS011;5783;55.174;61.310;2023-02-15T08:24:34;8.13;;;5.30;;
11453;SDS011;5783;55.174;61.310;2023-02-15T08:27:06;7.97;;;5.60;;
11453;SDS011;5783;55.174;61.310;2023-02-15T08:29:36;15.07;;;6.30;;
11453;SDS011;5783;55.174;61.310;2023-02-15T08:32:08;9.43;;;6.10;;
11453;SDS011;5783;55.174;61.310;2023-02-15T08:34:39;15.03;;;6.53;;
11453;SDS011;5783;55.174;61.310;2023-02-15T08:37:09;11.33;;;6.20;;
11453;SDS011;5783;55.174;61.310;2023-02-15T08:39:38;8.40;;;6.03;;
11453;SDS011;5783;55.174;61.310;2023-02-15T08:42:09;9.97;;;6.13;;
11453;SDS011;5783;55.174;61.310;2023-02-15T08:44:38;11.90;;;5.90;;
11453;SDS011;5783;55.174;61.310;2023-02-15T08:47:07;9.83;;;6.17;;
11453;SDS011;5783;55.174;61.310;2023-02-15T08:49:36;8.30;;;5.70;;
11453;SDS011;5783;55.174;61.310;2023-02-15T08:52:05;10.00;;;5.80;;
11453;SDS011;5783;55.174;61.310;2023-02-15T08:54:34;9.77;;;5.77;;
11453;SDS011;5783;55.174;61.310;2023-02-15T08:57:03;9.40;;;6.50;;
11453;SDS011;5783;55.174;61.310;2023-02-15T08:59:33;9.07;;;6.17;;
11453;SDS011;5783;55.174;61.310;2023-02-15T09:02:02;10.70;;;5.70;;
11453;SDS011;5783;55.174;61.310;2023-02-15T09:04:31;10.53;;;6.17;;
11453;SDS011;5783;55.174;61.310;2023-02-15T09:07:00;8.27;;;5.77;;
11453;SDS011;5783;55.174;61.310;2023-02-15T09:09:30;9.83;;;6.20;;
11453;SDS011;5783;55.174;61.310;2023-02-15T09:11:59;8.60;;;6.20;;
11453;SDS011;5783;55.174;61.310;2023-02-15T09:14:28;9.23;;;5.77;;
11453;SDS011;5783;55.174;61.310;2023-02-15T09:16:57;8.60;;;5.83;;
11453;SDS011;5783;55.174;61.310;2023-02-15T09:19:30;9.10;;;5.77;;
11453;SDS011;5783;55.174;61.310;2023-02-15T09:21:59;9.20;;;5.83;;
11453;SDS011;5783;55.174;61.310;2023-02-15T09:24:31;10.47;;;6.03;;
11453;SDS011;5783;55.174;61.310;2023-02-15T09:26:59;8.73;;;5.60;;
11453;SDS011;5783;55.174;61.310;2023-02-15T09:29:29;10.63;;;6.10;;
11453;SDS011;5783;55.174;61.310;2023-02-15T09:31:58;9.43;;;5.90;;
11453;SDS011;5783;55.174;61.310;2023-02-15T09:34:27;11.53;;;6.40;;
11453;SDS011;5783;55.174;61.310;2023-02-15T09:36:57;8.60;;;6.07;;
11453;SDS011;5783;55.174;61.310;2023-02-15T09:39:26;9.63;;;6.00;;
11453;SDS011;5783;55.174;61.310;2023-02-15T09:51:06;9.17;;;5.60;;
11453;SDS011;5783;55.174;61.310;2023-02-15T09:53:56;12.43;;;6.37;;
11453;SDS011;5783;55.174;61.310;2023-02-15T09:59:39;7.87;;;5.73;;
11453;SDS011;5783;55.174;61.310;2023-02-15T10:11:17;8.60;;;5.47;;
11453;SDS011;5783;55.174;61.310;2023-02-15T10:17:18;7.27;;;5.27;;
11453;SDS011;5783;55.174;61.310;2023-02-15T10:30:52;11.07;;;6.20;;
11453;SDS011;5783;55.174;61.310;2023-02-15T11:00:47;8.70;;;6.00;;
11453;SDS011;5783;55.174;61.310;2023-02-15T11:06:27;9.10;;;6.03;;
11453;SDS011;5783;55.174;61.310;2023-02-15T11:08:59;9.63;;;6.10;;
11453;SDS011;5783;55.174;61.310;2023-02-15T11:23:26;10.30;;;5.70;;
11453;SDS011;5783;55.174;61.310;2023-02-15T11:28:48;12.13;;;5.87;;
11453;SDS011;5783;55.174;61.310;2023-02-15T11:34:29;10.40;;;6.50;;
11453;SDS011;5783;55.174;61.310;2023-02-15T11:37:00;11.27;;;6.17;;
11453;SDS011;5783;55.174;61.310;2023-02-15T11:39:31;7.93;;;5.60;;
11453;SDS011;5783;55.174;61.310;2023-02-15T11:42:04;9.20;;;5.87;;
11453;SDS011;5783;55.174;61.310;2023-02-15T11:47:44;8.80;;;6.07;;
11453;SDS011;5783;55.174;61.310;2023-02-15T11:50:14;8.93;;;5.80;;
11453;SDS011;5783;55.174;61.310;2023-02-15T11:52:47;8.87;;;6.50;;
11453;SDS011;5783;55.174;61.310;2023-02-15T11:55:20;9.83;;;6.40;;
11453;SDS011;5783;55.174;61.310;2023-02-15T12:03:50;7.97;;;5.80;;
11453;SDS011;5783;55.174;61.310;2023-02-15T12:06:23;9.70;;;6.03;;
11453;SDS011;5783;55.174;61.310;2023-02-15T12:15:12;11.17;;;6.10;;
11453;SDS011;5783;55.174;61.310;2023-02-15T12:20:32;8.70;;;6.10;;
11453;SDS011;5783;55.174;61.310;2023-02-15T12:23:03;10.97;;;6.40;;
11453;SDS011;5783;55.174;61.310;2023-02-15T12:25:53;9.43;;;6.27;;
11453;SDS011;5783;55.174;61.310;2023-02-15T12:28:26;9.67;;;6.10;;
11453;SDS011;5783;55.174;61.310;2023-02-15T12:36:57;10.27;;;6.13;;
11453;SDS011;5783;55.174;61.310;2023-02-15T12:42:55;10.87;;;6.23;;
11453;SDS011;5783;55.174;61.310;2023-02-15T12:48:16;9.13;;;6.57;;
11453;SDS011;5783;55.174;61.310;2023-02-15T12:50:48;11.33;;;6.60;;
11453;SDS011;5783;55.174;61.310;2023-02-15T12:53:21;8.03;;;6.13;;
11453;SDS011;5783;55.174;61.310;2023-02-15T12:58:41;14.33;;;6.87;;
11453;SDS011;5783;55.174;61.310;2023-02-15T13:01:14;10.50;;;6.70;;
11453;SDS011;5783;55.174;61.310;2023-02-15T13:04:03;10.40;;;6.80;;
11453;SDS011;5783;55.174;61.310;2023-02-15T13:06:35;11.10;;;6.23;;
11453;SDS011;5783;55.174;61.310;2023-02-15T13:12:50;12.20;;;6.57;;
11453;SDS011;5783;55.174;61.310;2023-02-15T13:14:48;12.00;;;6.60;;
11453;SDS011;5783;55.174;61.310;2023-02-15T13:17:56;11.87;;;7.17;;
11453;SDS011;5783;55.174;61.310;2023-02-15T13:26:14;8.43;;;6.53;;
11453;SDS011;5783;55.174;61.310;2023-02-15T13:28:45;12.17;;;7.43;;
11453;SDS011;5783;55.174;61.310;2023-02-15T13:42:41;14.20;;;8.07;;
11453;SDS011;5783;55.174;61.310;2023-02-15T14:31:28;9.17;;;5.57;;
11453;SDS011;5783;55.174;61.310;2023-02-15T14:33:58;8.43;;;5.40;;
11453;SDS011;5783;55.174;61.310;2023-02-15T14:36:27;8.83;;;5.73;;
11453;SDS011;5783;55.174;61.310;2023-02-15T14:44:41;10.27;;;5.50;;
11453;SDS011;5783;55.174;61.310;2023-02-15T14:47:33;9.03;;;5.73;;
11453;SDS011;5783;55.174;61.310;2023-02-15T15:04:35;8.17;;;4.97;;
11453;SDS011;5783;55.174;61.310;2023-02-15T15:22:31;6.50;;;4.47;;
11453;SDS011;5783;55.174;61.310;2023-02-15T15:36:28;7.67;;;4.70;;
11453;SDS011;5783;55.174;61.310;2023-02-15T15:54:02;8.70;;;5.70;;
11453;SDS011;5783;55.174;61.310;2023-02-15T15:56:33;8.00;;;5.40;;
11453;SDS011;5783;55.174;61.310;2023-02-15T16:01:38;7.37;;;5.30;;
11453;SDS011;5783;55.174;61.310;2023-02-15T16:07:13;8.80;;;5.67;;
11453;SDS011;5783;55.174;61.310;2023-02-15T16:12:40;8.23;;;5.77;;
11453;SDS011;5783;55.174;61.310;2023-02-15T16:18:20;7.67;;;5.73;;
11453;SDS011;5783;55.174;61.310;2023-02-15T16:20:52;8.83;;;6.20;;
11453;SDS011;5783;55.174;61.310;2023-02-15T16:35:02;10.03;;;6.43;;
11453;SDS011;5783;55.174;61.310;2023-02-15T16:37:34;9.43;;;6.43;;
11453;SDS011;5783;55.174;61.310;2023-02-15T16:40:04;7.80;;;6.17;;
11453;SDS011;5783;55.174;61.310;2023-02-15T16:42:36;9.13;;;5.87;;
11453;SDS011;5783;55.174;61.310;2023-02-15T16:47:56;10.90;;;5.97;;
11453;SDS011;5783;55.174;61.310;2023-02-15T16:55:51;8.70;;;6.30;;
11453;SDS011;5783;55.174;61.310;2023-02-15T17:01:14;9.10;;;6.63;;
11453;SDS011;5783;55.174;61.310;2023-02-15T17:03:44;11.03;;;6.43;;
11453;SDS011;5783;55.174;61.310;2023-02-15T17:09:48;8.43;;;6.20;;
11453;SDS011;5783;55.174;61.310;2023-02-15T17:12:02;8.07;;;6.43;;
11453;SDS011;5783;55.174;61.310;2023-02-15T17:14:37;11.77;;;7.00;;
11453;SDS011;5783;55.174;61.310;2023-02-15T17:17:06;10.10;;;6.80;;
11453;SDS011;5783;55.174;61.310;2023-02-15T17:22:26;10.47;;;6.50;;
11453;SDS011;5783;55.174;61.310;2023-02-15T17:30:39;10.43;;;6.40;;
11453;SDS011;5783;55.174;61.310;2023-02-15T17:33:18;8.33;;;6.50;;
11453;SDS011;5783;55.174;61.310;2023-02-15T17:41:58;8.00;;;6.30;;
11453;SDS011;5783;55.174;61.310;2023-02-15T17:44:27;8.77;;;6.40;;
11453;SDS011;5783;55.174;61.310;2023-02-15T17:46:56;8.43;;;6.23;;
11453;SDS011;5783;55.174;61.310;2023-02-15T17:49:26;9.10;;;5.93;;
11453;SDS011;5783;55.174;61.310;2023-02-15T17:51:57;9.07;;;6.00;;
11453;SDS011;5783;55.174;61.310;2023-02-15T17:54:26;8.90;;;6.27;;
11453;SDS011;5783;55.174;61.310;2023-02-15T17:57:15;9.10;;;6.30;;
11453;SDS011;5783;55.174;61.310;2023-02-15T17:59:44;8.57;;;5.90;;
11453;SDS011;5783;55.174;61.310;2023-02-15T18:02:33;9.77;;;6.03;;
11453;SDS011;5783;55.174;61.310;2023-02-15T18:05:23;8.70;;;6.57;;
11453;SDS011;5783;55.174;61.310;2023-02-15T18:08:15;8.60;;;5.90;;
11453;SDS011;5783;55.174;61.310;2023-02-15T18:11:07;7.57;;;6.13;;
11453;SDS011;5783;55.174;61.310;2023-02-15T18:13:57;7.17;;;5.73;;
11453;SDS011;5783;55.174;61.310;2023-02-15T18:16:27;6.90;;;5.63;;
11453;SDS011;5783;55.174;61.310;2023-02-15T18:19:19;9.83;;;5.97;;
11453;SDS011;5783;55.174;61.310;2023-02-15T18:21:51;7.57;;;5.90;;
11453;SDS011;5783;55.174;61.310;2023-02-15T18:24:23;9.13;;;5.93;;
11453;SDS011;5783;55.174;61.310;2023-02-15T18:26:53;7.30;;;5.40;;
11453;SDS011;5783;55.174;61.310;2023-02-15T18:29:42;9.10;;;5.67;;
11453;SDS011;5783;55.174;61.310;2023-02-15T18:35:05;8.23;;;5.77;;
11453;SDS011;5783;55.174;61.310;2023-02-15T18:37:35;6.63;;;5.20;;
11453;SDS011;5783;55.174;61.310;2023-02-15T18:40:04;8.17;;;5.70;;
11453;SDS011;5783;55.174;61.310;2023-02-15T18:42:33;8.57;;;5.50;;
11453;SDS011;5783;55.174;61.310;2023-02-15T18:47:36;6.83;;;5.50;;
11453;SDS011;5783;55.174;61.310;2023-02-15T18:50:06;7.67;;;5.67;;
11453;SDS011;5783;55.174;61.310;2023-02-15T18:52:36;6.33;;;4.90;;
11453;SDS011;5783;55.174;61.310;2023-02-15T18:57:57;6.50;;;5.10;;
11453;SDS011;5783;55.174;61.310;2023-02-15T19:00:27;8.20;;;5.07;;
11453;SDS011;5783;55.174;61.310;2023-02-15T19:02:59;7.40;;;5.20;;
11453;SDS011;5783;55.174;61.310;2023-02-15T19:05:29;6.70;;;5.27;;
11453;SDS011;5783;55.174;61.310;2023-02-15T19:08:00;6.37;;;4.90;;
11453;SDS011;5783;55.174;61.310;2023-02-15T19:10:30;7.03;;;5.43;;
11453;SDS011;5783;55.174;61.310;2023-02-15T19:13:00;8.10;;;5.87;;
11453;SDS011;5783;55.174;61.310;2023-02-15T19:15:29;7.07;;;5.30;;
11453;SDS011;5783;55.174;61.310;2023-02-15T19:17:58;7.37;;;5.40;;
11453;SDS011;5783;55.174;61.310;2023-02-15T19:23:00;7.60;;;5.57;;
11453;SDS011;5783;55.174;61.310;2023-02-15T19:25:30;6.00;;;5.17;;
11453;SDS011;5783;55.174;61.310;2023-02-15T19:28:05;6.80;;;5.33;;
11453;SDS011;5783;55.174;61.310;2023-02-15T19:30:36;7.73;;;5.93;;
11453;SDS011;5783;55.174;61.310;2023-02-15T19:33:05;7.97;;;6.07;;
11453;SDS011;5783;55.174;61.310;2023-02-15T19:35:36;8.63;;;5.87;;
11453;SDS011;5783;55.174;61.310;2023-02-15T19:38:06;8.43;;;6.00;;
11453;SDS011;5783;55.174;61.310;2023-02-15T19:40:38;7.30;;;5.67;;
11453;SDS011;5783;55.174;61.310;2023-02-15T19:45:56;7.60;;;5.77;;
11453;SDS011;5783;55.174;61.310;2023-02-15T19:48:25;7.33;;;5.70;;
11453;SDS011;5783;55.174;61.310;2023-02-15T19:50:54;7.87;;;5.97;;
11453;SDS011;5783;55.174;61.310;2023-02-15T19:53:24;8.07;;;5.73;;
11453;SDS011;5783;55.174;61.310;2023-02-15T19:55:55;7.07;;;5.60;;
11453;SDS011;5783;55.174;61.310;2023-02-15T19:58:24;7.70;;;6.07;;
11453;SDS011;5783;55.174;61.310;2023-02-15T20:00:54;7.33;;;5.50;;
11453;SDS011;5783;55.174;61.310;2023-02-15T20:03:23;8.20;;;5.70;;
11453;SDS011;5783;55.174;61.310;2023-02-15T20:05:53;9.37;;;6.17;;
11453;SDS011;5783;55.174;61.310;2023-02-15T20:08:22;8.97;;;5.77;;
11453;SDS011;5783;55.174;61.310;2023-02-15T20:10:51;7.37;;;5.60;;
11453;SDS011;5783;55.174;61.310;2023-02-15T20:13:20;8.93;;;5.97;;
11453;SDS011;5783;55.174;61.310;2023-02-15T20:15:49;8.30;;;6.20;;
11453;SDS011;5783;55.174;61.310;2023-02-15T20:18:19;9.23;;;6.40;;
11453;SDS011;5783;55.174;61.310;2023-02-15T20:23:21;9.70;;;6.30;;
11453;SDS011;5783;55.174;61.310;2023-02-15T20:28:44;8.67;;;6.30;;
11453;SDS011;5783;55.174;61.310;2023-02-15T20:31:14;9.40;;;6.03;;
11453;SDS011;5783;55.174;61.310;2023-02-15T20:36:36;9.43;;;6.40;;
11453;SDS011;5783;55.174;61.310;2023-02-15T20:41:55;10.70;;;5.63;;
11453;SDS011;5783;55.174;61.310;2023-02-15T20:47:13;8.47;;;6.07;;
11453;SDS011;5783;55.174;61.310;2023-02-15T20:49:43;10.50;;;5.80;;
11453;SDS011;5783;55.174;61.310;2023-02-15T20:55:01;10.60;;;5.93;;
11453;SDS011;5783;55.174;61.310;2023-02-15T20:57:30;10.20;;;6.17;;
11453;SDS011;5783;55.174;61.310;2023-02-15T20:59:59;8.50;;;5.70;;
11453;SDS011;5783;55.174;61.310;2023-02-15T21:02:30;9.00;;;5.70;;
11453;SDS011;5783;55.174;61.310;2023-02-15T21:04:59;10.80;;;5.27;;
11453;SDS011;5783;55.174;61.310;2023-02-15T21:07:30;7.57;;;5.40;;
11453;SDS011;5783;55.174;61.310;2023-02-15T21:09:59;8.97;;;5.57;;
11453;SDS011;5783;55.174;61.310;2023-02-15T21:12:30;8.57;;;5.97;;
11453;SDS011;5783;55.174;61.310;2023-02-15T21:14:59;9.00;;;5.40;;
11453;SDS011;5783;55.174;61.310;2023-02-15T21:17:30;8.17;;;5.40;;
11453;SDS011;5783;55.174;61.310;2023-02-15T21:19:59;9.23;;;5.97;;
11453;SDS011;5783;55.174;61.310;2023-02-15T21:22:30;8.97;;;5.57;;
11453;SDS011;5783;55.174;61.310;2023-02-15T21:24:59;8.63;;;5.20;;
11453;SDS011;5783;55.174;61.310;2023-02-15T21:27:30;8.23;;;5.23;;
11453;SDS011;5783;55.174;61.310;2023-02-15T21:29:59;7.37;;;5.10;;
11453;SDS011;5783;55.174;61.310;2023-02-15T21:32:31;7.73;;;4.93;;
11453;SDS011;5783;55.174;61.310;2023-02-15T21:35:00;7.50;;;4.97;;
11453;SDS011;5783;55.174;61.310;2023-02-15T21:37:31;6.70;;;5.03;;
11453;SDS011;5783;55.174;61.310;2023-02-15T21:40:04;6.80;;;5.10;;
11453;SDS011;5783;55.174;61.310;2023-02-15T21:42:35;7.03;;;5.00;;
11453;SDS011;5783;55.174;61.310;2023-02-15T21:45:24;8.00;;;5.30;;
11453;SDS011;5783;55.174;61.310;2023-02-15T21:48:13;5.93;;;4.80;;